Bearn, Canada
Current Conditions -  °F | °C
As of 1:33 AM on Friday 19 Dec 2014 (Local Time) from CYXR Reporting Station
Broken Clouds Broken Clouds  
Wind Chill: -14°   Ceiling: 800
Heat Index:   Visibility: 9mi
Dew Point:   Wind: 10mph
Humidity: 92%   Direction: 310°NW
Pressure: 30.18"   Gusts: NA
Location:  47.28°N, 79.33°W
Report Text: CYXR 190633Z AUTO 31009KT 9SM BKN008 M17/M18 A3018 RMK SLP243
Loading
Personal Weather Stations






























Interactive Weather Map New forecast layout! Learn more

10-Day Weather Forecast

Advertisements
Track Severe Weather on mobile